Cleveland, Ohio
Traffic Map
Current Weather Conditions
Cleveland, Ohio
Clear
Clear
31°
Feels Like: 32°
Wind Chill: 31° Ceiling: Unl
Heat Index: 32° Visibility: 10mi
Dew Point: 18° Wind: 10mph
Humidity: 46% Direction: 200° (SSW)
Pressure: 30.08in Gusts: 0mph
Raw Report DataKBKL 261653Z 20009KT 10SM CLR 31/18 A3008 RMK AO2 SLP181 T03110183
Traffic Incident Summary
Active as of:
Severity:
Category:
InformationThere was an issue retrieving the traffic information for this location. Please try a different location or try again shortly.
Advertisements
Track Severe Weather on mobile